createdAt,value
2023-02-23T00:00:44.715Z,10.15
2023-02-23T00:03:12.801Z,10.08
2023-02-23T00:05:40.626Z,10.04
2023-02-23T00:08:08.293Z,10.03
2023-02-23T00:10:36.134Z,9.98
2023-02-23T00:13:11.145Z,9.87
2023-02-23T00:15:39.083Z,9.85
2023-02-23T00:29:26.183Z,9.91
2023-02-23T00:31:56.436Z,9.88
2023-02-23T00:34:24.321Z,9.94
2023-02-23T00:36:54.496Z,9.96
2023-02-23T00:39:27.014Z,9.92
2023-02-23T00:41:55.384Z,9.96
2023-02-23T00:44:25.753Z,9.95
2023-02-23T00:49:36.106Z,9.90
2023-02-23T00:52:31.255Z,9.93
2023-02-23T01:06:07.192Z,10.01
2023-02-23T01:09:16.172Z,9.87
2023-02-23T01:11:46.688Z,10.01
2023-02-23T01:14:16.500Z,10.04
2023-02-23T01:19:22.555Z,9.89
2023-02-23T01:21:50.420Z,9.85
2023-02-23T01:24:19.725Z,9.90
2023-02-23T01:26:48.640Z,9.97
2023-02-23T01:29:18.310Z,10.08
2023-02-23T01:31:48.711Z,9.81
2023-02-23T01:34:17.283Z,9.82
2023-02-23T01:36:45.353Z,9.90
2023-02-23T01:39:55.954Z,9.83
2023-02-23T01:45:56.354Z,9.74
2023-02-23T02:37:24.970Z,10.07
2023-02-23T02:40:15.686Z,10.00
2023-02-23T02:47:10.850Z,9.99
2023-02-23T02:50:15.340Z,10.01
2023-02-23T02:52:49.963Z,9.98
2023-02-23T02:55:34.502Z,10.02
2023-02-23T02:58:06.389Z,9.93
2023-02-23T03:14:36.061Z,9.69
2023-02-23T03:17:25.668Z,9.81
2023-02-23T03:20:15.674Z,9.80
2023-02-23T03:23:06.701Z,9.70
2023-02-23T03:26:00.037Z,9.66
2023-02-23T03:28:50.856Z,9.74
2023-02-23T03:31:42.309Z,9.62
2023-02-23T03:34:29.796Z,9.74
2023-02-23T03:37:20.708Z,9.68
2023-02-23T03:40:10.808Z,9.59
2023-02-23T03:42:56.992Z,9.35
2023-02-23T03:45:54.013Z,9.47
2023-02-23T03:48:50.663Z,9.43
2023-02-23T03:51:37.524Z,9.37
2023-02-23T03:57:29.269Z,9.53
2023-02-23T04:00:17.808Z,9.47
2023-02-23T04:03:05.995Z,9.42
2023-02-23T04:05:54.542Z,9.46
2023-02-23T04:08:40.994Z,9.47
2023-02-23T04:12:03.862Z,9.38
2023-02-23T04:15:12.177Z,9.26
2023-02-23T04:17:40.432Z,9.47
2023-02-23T04:38:43.959Z,9.67
2023-02-23T04:51:24.271Z,9.31
2023-02-23T04:53:51.870Z,9.58
2023-02-23T04:56:19.482Z,9.51
2023-02-23T04:58:47.060Z,9.55
2023-02-23T05:01:14.756Z,9.56
2023-02-23T05:03:42.371Z,9.45
2023-02-23T05:06:09.959Z,9.57
2023-02-23T05:08:38.944Z,9.51
2023-02-23T05:11:07.346Z,9.44
2023-02-23T05:22:38.004Z,9.62
2023-02-23T05:25:21.872Z,9.70
2023-02-23T05:27:49.624Z,9.78
2023-02-23T05:30:17.588Z,9.70
2023-02-23T05:32:45.253Z,9.68
2023-02-23T05:35:13.104Z,9.76
2023-02-23T05:43:01.864Z,9.68
2023-02-23T05:45:29.519Z,9.79
2023-02-23T05:47:57.228Z,9.80
2023-02-23T05:50:24.914Z,9.85
2023-02-23T05:52:52.927Z,9.89
2023-02-23T05:55:20.627Z,9.88
2023-02-23T05:57:48.334Z,9.90
2023-02-23T06:00:19.562Z,9.94
2023-02-23T06:02:47.397Z,9.95
2023-02-23T06:05:15.848Z,9.91
2023-02-23T06:07:45.625Z,9.92
2023-02-23T06:10:14.459Z,9.93
2023-02-23T06:12:42.507Z,9.95
2023-02-23T06:15:17.106Z,9.91
2023-02-23T06:17:46.156Z,9.94
2023-02-23T06:20:15.088Z,9.92
2023-02-23T06:22:43.562Z,9.74
2023-02-23T06:25:13.526Z,9.70
2023-02-23T06:27:46.168Z,9.63
2023-02-23T06:30:14.860Z,9.66
2023-02-23T06:32:42.666Z,9.64
2023-02-23T06:35:12.058Z,9.75
2023-02-23T06:37:39.749Z,9.69
2023-02-23T06:40:08.767Z,9.68
2023-02-23T06:42:36.764Z,9.69
2023-02-23T06:45:04.489Z,9.70
2023-02-23T06:47:32.058Z,9.78
2023-02-23T06:49:59.889Z,9.90
2023-02-23T06:52:28.851Z,9.90
2023-02-23T06:54:56.522Z,9.89
2023-02-23T06:57:24.162Z,9.89
2023-02-23T06:59:51.877Z,9.90
2023-02-23T07:02:19.368Z,9.93
2023-02-23T07:04:47.145Z,9.87
2023-02-23T07:07:14.902Z,9.91
2023-02-23T07:09:48.940Z,9.90
2023-02-23T07:12:16.367Z,9.88
2023-02-23T07:14:44.051Z,9.88
2023-02-23T07:17:12.679Z,9.94
2023-02-23T07:19:40.705Z,9.92
2023-02-23T07:22:08.231Z,9.95
2023-02-23T07:24:36.087Z,10.03
2023-02-23T07:27:05.425Z,9.95
2023-02-23T07:29:33.037Z,10.03
2023-02-23T07:32:01.238Z,9.97
2023-02-23T07:34:28.852Z,10.00
2023-02-23T07:36:56.336Z,9.97
2023-02-23T07:39:23.825Z,9.97
2023-02-23T07:41:51.387Z,9.97
2023-02-23T07:44:20.283Z,9.98
2023-02-23T07:46:47.741Z,9.97
2023-02-23T07:49:15.298Z,10.03
2023-02-23T07:51:42.702Z,9.90
2023-02-23T07:54:10.297Z,9.97
2023-02-23T07:56:37.803Z,9.97
2023-02-23T07:59:05.314Z,10.00
2023-02-23T08:01:34.170Z,10.02
2023-02-23T08:04:01.831Z,10.02
2023-02-23T08:06:29.477Z,9.99
2023-02-23T08:08:57.105Z,9.99
2023-02-23T08:11:24.530Z,10.00
2023-02-23T08:13:52.071Z,10.04
2023-02-23T08:16:19.617Z,9.93
2023-02-23T08:18:48.655Z,10.04
2023-02-23T08:21:16.164Z,10.06
2023-02-23T08:23:43.599Z,10.03
2023-02-23T08:26:11.598Z,10.05
2023-02-23T08:28:41.744Z,10.08
2023-02-23T08:31:10.641Z,10.08
2023-02-23T08:33:38.872Z,9.88
2023-02-23T08:36:08.833Z,9.99
2023-02-23T08:38:37.478Z,10.04
2023-02-23T08:41:06.475Z,10.02
2023-02-23T08:43:34.551Z,9.93
2023-02-23T08:46:02.355Z,9.96
2023-02-23T08:48:30.287Z,10.00
2023-02-23T08:50:58.868Z,9.91
2023-02-23T08:53:29.888Z,10.07
2023-02-23T08:55:59.357Z,10.01
2023-02-23T08:58:30.741Z,10.12
2023-02-23T09:00:58.746Z,10.01
2023-02-23T09:03:28.882Z,10.11
2023-02-23T09:05:58.092Z,10.14
2023-02-23T09:08:27.362Z,10.16
2023-02-23T09:10:55.068Z,10.10
2023-02-23T09:13:22.953Z,10.08
2023-02-23T09:15:50.903Z,10.19
2023-02-23T09:18:18.452Z,10.15
2023-02-23T09:20:46.899Z,10.13
2023-02-23T09:23:14.883Z,10.07
2023-02-23T09:25:44.446Z,10.11
2023-02-23T09:28:13.099Z,10.07
2023-02-23T09:30:43.965Z,10.13
2023-02-23T09:33:12.579Z,10.11
2023-02-23T09:35:41.608Z,10.22
2023-02-23T09:38:10.372Z,10.13
2023-02-23T09:40:53.057Z,10.20
2023-02-23T09:43:24.539Z,10.22
2023-02-23T09:45:55.889Z,10.20
2023-02-23T09:48:26.885Z,10.26
2023-02-23T09:50:56.730Z,10.15
2023-02-23T09:53:34.273Z,10.27
2023-02-23T09:56:08.516Z,10.36
2023-02-23T09:58:37.088Z,10.31
2023-02-23T10:01:36.648Z,10.19
2023-02-23T10:04:07.976Z,10.27
2023-02-23T10:06:39.512Z,10.26
2023-02-23T10:09:17.420Z,10.24
2023-02-23T10:11:52.618Z,10.36
2023-02-23T10:14:46.072Z,10.35
2023-02-23T10:17:25.906Z,10.28
2023-02-23T10:20:01.741Z,10.33
2023-02-23T10:22:33.568Z,10.20
2023-02-23T10:25:05.334Z,10.31
2023-02-23T10:27:48.346Z,10.18
2023-02-23T10:30:22.167Z,10.29
2023-02-23T10:32:55.501Z,10.31
2023-02-23T10:35:25.382Z,10.25
2023-02-23T10:37:54.621Z,10.26
2023-02-23T10:40:25.431Z,10.36
2023-02-23T10:42:56.545Z,10.31
2023-02-23T10:45:27.495Z,10.21
2023-02-23T10:47:59.443Z,10.25
2023-02-23T10:50:30.614Z,10.22
2023-02-23T10:53:01.980Z,10.20
2023-02-23T10:55:31.713Z,10.30
2023-02-23T10:58:06.758Z,10.29
2023-02-23T11:00:41.396Z,10.25
2023-02-23T11:03:28.794Z,10.15
2023-02-23T11:05:58.730Z,10.25
2023-02-23T11:08:32.947Z,10.24
2023-02-23T11:11:08.547Z,10.13
2023-02-23T11:13:41.391Z,10.16
2023-02-23T11:16:13.454Z,10.27
2023-02-23T11:18:45.514Z,10.27
2023-02-23T11:21:15.831Z,10.23
2023-02-23T11:23:44.733Z,10.09
2023-02-23T11:26:28.969Z,10.26
2023-02-23T11:29:04.177Z,10.16
2023-02-23T11:31:36.331Z,10.19
2023-02-23T11:34:05.695Z,10.27
2023-02-23T11:36:36.008Z,10.23
2023-02-23T11:39:08.942Z,10.18
2023-02-23T11:41:38.716Z,10.10
2023-02-23T11:44:08.390Z,10.00
2023-02-23T11:46:40.143Z,10.11
2023-02-23T11:49:09.854Z,10.22
2023-02-23T11:51:41.482Z,10.07
2023-02-23T11:54:22.665Z,10.17
2023-02-23T11:56:55.386Z,10.16
2023-02-23T11:59:31.387Z,10.05
2023-02-23T12:02:11.603Z,10.08
2023-02-23T12:04:43.225Z,10.12
2023-02-23T12:07:42.046Z,10.00
2023-02-23T12:10:21.367Z,10.10
2023-02-23T12:13:08.593Z,10.20
2023-02-23T12:15:44.013Z,10.30
2023-02-23T12:18:34.824Z,10.04
2023-02-23T12:21:10.365Z,10.13
2023-02-23T12:23:42.403Z,10.08
2023-02-23T12:26:13.978Z,10.14
2023-02-23T12:28:46.649Z,10.23
2023-02-23T12:31:24.843Z,10.13
2023-02-23T12:33:57.093Z,10.23
2023-02-23T12:36:32.133Z,10.15
2023-02-23T12:39:04.966Z,10.12
2023-02-23T12:41:39.056Z,10.14
2023-02-23T12:44:15.502Z,10.13
2023-02-23T12:46:49.006Z,9.99
2023-02-23T12:49:21.493Z,10.14
2023-02-23T12:51:52.849Z,9.94
2023-02-23T12:54:21.572Z,10.12
2023-02-23T12:56:57.593Z,10.00
2023-02-23T12:59:44.008Z,9.99
2023-02-23T13:02:16.883Z,9.94
2023-02-23T13:04:58.144Z,9.93
2023-02-23T13:07:35.286Z,10.07
2023-02-23T13:10:10.602Z,10.00
2023-02-23T13:12:49.586Z,9.85
2023-02-23T13:15:27.243Z,9.71
2023-02-23T13:18:03.790Z,9.74
2023-02-23T13:20:35.273Z,9.71
2023-02-23T13:23:12.872Z,9.78
2023-02-23T13:25:48.384Z,9.94
2023-02-23T13:28:20.185Z,9.83
2023-02-23T13:30:48.769Z,9.92
2023-02-23T13:33:38.320Z,9.75
2023-02-23T13:36:14.636Z,9.90
2023-02-23T13:38:48.681Z,9.77
2023-02-23T13:41:30.720Z,9.88
2023-02-23T13:44:03.290Z,9.93
2023-02-23T13:46:38.465Z,9.97
2023-02-23T13:49:22.275Z,9.95
2023-02-23T13:51:54.567Z,9.97
2023-02-23T13:54:29.734Z,10.04
2023-02-23T13:56:59.632Z,10.10
2023-02-23T13:59:30.411Z,9.95
2023-02-23T14:02:01.320Z,10.11
2023-02-23T14:04:36.533Z,10.23
2023-02-23T14:07:07.398Z,10.04
2023-02-23T14:09:38.219Z,10.18
2023-02-23T14:12:18.775Z,10.15
2023-02-23T14:14:48.725Z,10.19
2023-02-23T14:17:56.890Z,9.99
2023-02-23T14:20:49.451Z,9.76
2023-02-23T14:23:30.415Z,10.12
2023-02-23T14:26:15.867Z,10.15
2023-02-23T14:28:46.929Z,10.02
2023-02-23T14:31:23.480Z,10.11
2023-02-23T14:34:00.209Z,10.12
2023-02-23T14:36:39.687Z,10.05
2023-02-23T14:39:10.906Z,10.08
2023-02-23T14:41:43.109Z,10.04
2023-02-23T14:44:28.244Z,9.92
2023-02-23T14:46:59.662Z,10.02
2023-02-23T14:49:29.366Z,9.99
2023-02-23T14:52:00.978Z,9.93
2023-02-23T14:54:33.586Z,9.92
2023-02-23T14:57:03.615Z,9.95
2023-02-23T14:59:38.944Z,9.94
2023-02-23T15:02:13.996Z,9.94
2023-02-23T15:04:43.893Z,10.06
2023-02-23T15:07:24.278Z,9.81
2023-02-23T15:09:54.065Z,9.94
2023-02-23T15:12:28.440Z,9.84
2023-02-23T15:14:59.731Z,9.96
2023-02-23T15:17:30.960Z,10.00
2023-02-23T15:20:14.672Z,9.95
2023-02-23T15:22:47.692Z,10.03
2023-02-23T15:25:18.768Z,10.00
2023-02-23T15:27:50.186Z,9.91
2023-02-23T15:30:24.464Z,9.95
2023-02-23T15:33:01.830Z,9.95
2023-02-23T15:35:31.287Z,9.87
2023-02-23T15:38:13.716Z,10.03
2023-02-23T15:40:42.675Z,10.05
2023-02-23T15:43:12.264Z,10.16
2023-02-23T15:45:42.930Z,9.99
2023-02-23T15:48:18.812Z,10.03
2023-02-23T15:50:50.332Z,10.03
2023-02-23T15:53:31.797Z,10.10
2023-02-23T15:56:08.768Z,9.97
2023-02-23T15:58:50.935Z,10.13
2023-02-23T16:01:25.917Z,10.05
2023-02-23T16:04:01.132Z,9.99
2023-02-23T16:06:35.001Z,10.00
2023-02-23T16:09:23.708Z,10.20
2023-02-23T16:11:54.147Z,10.06
2023-02-23T16:14:24.272Z,10.07
2023-02-23T16:17:10.062Z,9.94
2023-02-23T16:19:42.109Z,10.15
2023-02-23T16:22:20.898Z,10.05
2023-02-23T16:25:02.660Z,10.17
2023-02-23T16:27:31.606Z,9.93
2023-02-23T16:32:45.391Z,10.02
2023-02-23T16:35:18.287Z,10.05
2023-02-23T16:38:03.996Z,10.10
2023-02-23T16:40:33.860Z,10.13
2023-02-23T16:43:02.859Z,10.11
2023-02-23T16:45:31.574Z,10.19
2023-02-23T16:48:02.671Z,10.01
2023-02-23T16:50:33.777Z,9.89
2023-02-23T16:53:03.567Z,9.97
2023-02-23T16:55:38.215Z,9.94
2023-02-23T16:58:11.356Z,10.06
2023-02-23T17:00:39.740Z,10.09
2023-02-23T17:03:11.983Z,9.99
2023-02-23T17:05:41.411Z,10.19
2023-02-23T17:08:10.667Z,9.99
2023-02-23T17:10:39.012Z,10.16
2023-02-23T17:13:12.151Z,10.01
2023-02-23T17:15:51.043Z,10.07
2023-02-23T17:18:19.603Z,9.86
2023-02-23T17:20:48.951Z,9.98
2023-02-23T17:23:17.744Z,9.91
2023-02-23T17:25:46.881Z,9.72
2023-02-23T17:28:16.235Z,9.66
2023-02-23T17:30:45.100Z,9.61
2023-02-23T17:33:13.503Z,9.65
2023-02-23T17:35:41.074Z,9.56
2023-02-23T17:38:09.545Z,9.61
2023-02-23T17:40:38.150Z,9.49
2023-02-23T17:43:08.338Z,9.54
2023-02-23T17:45:37.555Z,9.51
2023-02-23T17:48:05.615Z,9.52
2023-02-23T17:50:33.162Z,9.39
2023-02-23T17:53:00.682Z,9.60
2023-02-23T17:55:28.187Z,9.61
2023-02-23T17:57:55.716Z,9.53
2023-02-23T18:00:25.065Z,9.38
2023-02-23T18:02:53.927Z,9.28
2023-02-23T18:05:21.734Z,9.23
2023-02-23T18:07:49.215Z,9.18
2023-02-23T18:10:17.722Z,9.21
2023-02-23T18:12:45.564Z,9.32
2023-02-23T18:15:13.168Z,9.11
2023-02-23T18:17:40.689Z,9.30
2023-02-23T18:20:13.991Z,9.13
2023-02-23T18:22:41.800Z,9.20
2023-02-23T18:25:10.324Z,9.15
2023-02-23T18:27:37.837Z,9.21
2023-02-23T18:30:06.149Z,9.21
2023-02-23T18:32:33.849Z,9.35
2023-02-23T18:35:01.378Z,9.32
2023-02-23T18:37:30.861Z,9.36
2023-02-23T18:39:59.273Z,9.41
2023-02-23T18:42:27.085Z,9.37
2023-02-23T18:44:54.728Z,9.35
2023-02-23T18:47:22.219Z,9.31
2023-02-23T18:49:49.702Z,8.92
2023-02-23T18:52:17.157Z,9.16
2023-02-23T18:54:46.479Z,8.95
2023-02-23T18:57:13.888Z,9.01
2023-02-23T18:59:41.391Z,9.00
2023-02-23T19:02:08.916Z,8.63
2023-02-23T19:04:36.528Z,8.75
2023-02-23T19:07:04.002Z,8.90
2023-02-23T19:09:31.553Z,8.73
2023-02-23T19:12:00.379Z,8.72
2023-02-23T19:14:47.948Z,8.66
2023-02-23T19:17:15.272Z,8.62
2023-02-23T19:19:42.796Z,8.72
2023-02-23T19:22:10.898Z,8.75
2023-02-23T19:24:38.772Z,8.48
2023-02-23T19:27:07.683Z,8.60
2023-02-23T19:29:35.197Z,8.64
2023-02-23T19:32:03.783Z,8.35
2023-02-23T19:34:31.364Z,8.27
2023-02-23T19:36:58.928Z,8.45
2023-02-23T19:39:26.532Z,8.43
2023-02-23T19:41:54.136Z,8.34
2023-02-23T19:44:23.003Z,8.67
2023-02-23T19:46:50.601Z,8.61
2023-02-23T19:49:18.092Z,8.71
2023-02-23T19:51:47.573Z,8.58
2023-02-23T19:54:15.167Z,8.37
2023-02-23T19:56:43.300Z,8.44
2023-02-23T19:59:12.037Z,8.43
2023-02-23T20:01:43.422Z,8.54
2023-02-23T20:04:10.912Z,8.19
2023-02-23T20:06:44.721Z,8.44
2023-02-23T20:09:12.375Z,8.46
2023-02-23T20:11:40.498Z,8.38
2023-02-23T20:14:08.204Z,8.11
2023-02-23T20:16:36.383Z,8.38
2023-02-23T20:19:06.606Z,8.04
2023-02-23T20:21:34.949Z,8.29
2023-02-23T20:24:03.730Z,8.10
2023-02-23T20:26:35.429Z,8.45
2023-02-23T20:29:05.051Z,8.22
2023-02-23T20:31:35.493Z,8.07
2023-02-23T20:34:07.618Z,8.24
2023-02-23T20:36:35.705Z,8.27
2023-02-23T20:39:03.728Z,8.28
2023-02-23T20:41:31.548Z,8.44
2023-02-23T20:44:01.049Z,8.59
2023-02-23T20:46:30.387Z,8.33
2023-02-23T20:48:59.167Z,8.42
2023-02-23T20:51:28.465Z,8.29
2023-02-23T20:53:56.091Z,8.17
2023-02-23T20:56:23.593Z,8.28
2023-02-23T20:58:54.176Z,8.18
2023-02-23T21:01:23.677Z,8.23
2023-02-23T21:03:52.207Z,8.17
2023-02-23T21:06:20.031Z,8.25
2023-02-23T21:08:49.730Z,8.35
2023-02-23T21:11:17.778Z,7.99
2023-02-23T21:13:45.826Z,7.99
2023-02-23T21:16:15.023Z,8.14
2023-02-23T21:18:46.118Z,8.04
2023-02-23T21:21:15.800Z,8.09
2023-02-23T21:23:44.960Z,8.10
2023-02-23T21:26:15.649Z,8.07
2023-02-23T21:28:43.901Z,8.05
2023-02-23T21:31:12.469Z,8.14
2023-02-23T21:33:40.930Z,8.20
2023-02-23T21:36:10.758Z,8.20
2023-02-23T21:38:38.651Z,8.18
2023-02-23T21:41:06.414Z,8.21
2023-02-23T21:43:36.508Z,8.19
2023-02-23T21:46:08.137Z,8.24
2023-02-23T21:48:35.899Z,8.29
2023-02-23T21:51:04.524Z,8.12
2023-02-23T21:53:32.431Z,8.18
2023-02-23T21:55:59.834Z,8.06
2023-02-23T21:58:27.837Z,8.13
2023-02-23T22:00:56.758Z,8.12
2023-02-23T22:03:25.945Z,8.15
2023-02-23T22:05:53.371Z,8.09
2023-02-23T22:08:21.032Z,8.11
2023-02-23T22:10:48.822Z,8.09
2023-02-23T22:13:19.218Z,8.10
2023-02-23T22:18:34.941Z,7.99
2023-02-23T22:21:08.680Z,8.04
2023-02-23T22:23:36.611Z,8.01
2023-02-23T22:26:04.397Z,7.91
2023-02-23T22:28:32.386Z,7.90
2023-02-23T22:31:04.852Z,7.91
2023-02-23T22:33:34.465Z,7.92
2023-02-23T22:36:03.229Z,7.92
2023-02-23T22:38:32.755Z,7.90
2023-02-23T22:41:00.793Z,7.86
2023-02-23T22:43:30.184Z,8.01
2023-02-23T22:45:58.228Z,7.80
2023-02-23T22:48:28.390Z,7.75
2023-02-23T22:50:59.690Z,7.84
2023-02-23T22:53:27.701Z,7.56
2023-02-23T22:55:56.422Z,7.70
2023-02-23T22:58:26.394Z,7.73
2023-02-23T23:01:05.096Z,7.76
2023-02-23T23:03:35.866Z,7.73
2023-02-23T23:06:08.056Z,7.73
2023-02-23T23:08:38.711Z,7.59
2023-02-23T23:11:10.275Z,7.58
2023-02-23T23:13:43.298Z,7.61
2023-02-23T23:16:16.815Z,7.67
2023-02-23T23:18:54.280Z,7.69
2023-02-23T23:21:26.333Z,7.60
2023-02-23T23:23:56.050Z,7.68
2023-02-23T23:26:25.665Z,7.58
2023-02-23T23:28:55.165Z,7.61
2023-02-23T23:31:28.373Z,7.45
2023-02-23T23:34:00.122Z,7.74
2023-02-23T23:36:31.993Z,7.54
2023-02-23T23:39:00.070Z,7.61
2023-02-23T23:41:29.362Z,7.45
2023-02-23T23:43:59.165Z,7.59
2023-02-23T23:46:32.468Z,7.62
2023-02-23T23:49:02.605Z,7.46
2023-02-23T23:51:37.236Z,7.41
2023-02-23T23:54:06.226Z,7.41
2023-02-23T23:56:37.546Z,7.56
2023-02-23T23:59:07.311Z,7.44
